createdAt,value
2019-04-23T00:03:47.258Z,2.30
2019-04-23T00:06:19.199Z,2.70
2019-04-23T00:09:05.526Z,3.10
2019-04-23T00:11:17.195Z,3.80
2019-04-23T00:16:17.014Z,3.37
2019-04-23T00:21:13.754Z,2.00
2019-04-23T00:23:47.865Z,2.85
2019-04-23T00:26:08.037Z,2.40
2019-04-23T00:28:45.616Z,3.30
2019-04-23T00:31:13.411Z,2.40
2019-04-23T00:33:34.604Z,1.90
2019-04-23T00:36:03.439Z,2.80
2019-04-23T00:38:38.695Z,3.50
2019-04-23T00:41:01.657Z,1.65
2019-04-23T00:43:27.253Z,2.72
2019-04-23T00:48:43.982Z,2.25
2019-04-23T00:53:22.096Z,2.65
2019-04-23T00:55:47.751Z,2.50
2019-04-23T00:58:22.135Z,4.83
2019-04-23T01:00:47.335Z,4.95
2019-04-23T01:03:12.572Z,3.02
2019-04-23T01:05:41.090Z,2.58
2019-04-23T01:08:12.961Z,2.25
2019-04-23T01:10:50.800Z,4.85
2019-04-23T01:13:08.916Z,2.30
2019-04-23T01:15:53.742Z,3.22
2019-04-23T01:18:10.908Z,2.47
2019-04-23T01:20:39.128Z,1.98
2019-04-23T01:22:46.438Z,1.92
2019-04-23T01:25:27.856Z,2.80
2019-04-23T01:28:15.934Z,2.30
2019-04-23T01:30:47.510Z,2.47
2019-04-23T01:33:18.385Z,1.95
2019-04-23T01:35:43.065Z,3.05
2019-04-23T01:38:04.460Z,2.37
2019-04-23T01:40:36.460Z,4.50
2019-04-23T01:43:02.759Z,7.75
2019-04-23T01:48:00.096Z,2.02
2019-04-23T01:50:37.606Z,1.60
2019-04-23T01:58:06.991Z,2.22
2019-04-23T02:00:29.215Z,3.17
2019-04-23T02:02:55.546Z,2.30
2019-04-23T02:07:56.366Z,2.50
2019-04-23T02:10:39.502Z,2.50
2019-04-23T02:12:53.608Z,3.27
2019-04-23T02:15:18.547Z,2.70
2019-04-23T02:17:44.312Z,4.42
2019-04-23T02:20:17.782Z,3.72
2019-04-23T02:22:56.266Z,2.95
2019-04-23T02:25:15.779Z,1.90
2019-04-23T02:27:46.704Z,1.87
2019-04-23T02:30:26.622Z,2.92
2019-04-23T02:32:45.864Z,4.30
2019-04-23T02:35:20.773Z,3.98
2019-04-23T02:37:54.244Z,2.45
2019-04-23T02:40:30.384Z,2.30
2019-04-23T02:43:01.272Z,2.17
2019-04-23T02:45:02.627Z,3.50
2019-04-23T02:47:36.565Z,3.17
2019-04-23T02:50:09.395Z,2.62
2019-04-23T02:54:56.724Z,3.80
2019-04-23T02:57:20.357Z,3.98
2019-04-23T03:00:05.746Z,4.72
2019-04-23T03:02:37.043Z,2.95
2019-04-23T03:04:51.631Z,2.75
2019-04-23T03:07:26.742Z,3.33
2019-04-23T03:09:45.505Z,1.70
2019-04-23T03:12:18.528Z,2.22
2019-04-23T03:14:55.829Z,4.47
2019-04-23T03:17:27.162Z,2.10
2019-04-23T03:20:15.228Z,3.20
2019-04-23T03:23:02.674Z,2.00
2019-04-23T03:27:50.004Z,2.92
2019-04-23T03:30:26.680Z,2.98
2019-04-23T03:33:58.799Z,3.10
2019-04-23T03:35:10.537Z,3.00
2019-04-23T03:40:13.285Z,4.75
2019-04-23T03:42:42.484Z,2.85
2019-04-23T03:45:16.635Z,2.47
2019-04-23T03:47:32.531Z,4.58
2019-04-23T03:50:05.284Z,4.08
2019-04-23T03:56:00.472Z,3.05
2019-04-23T03:57:25.293Z,4.70
2019-04-23T04:02:39.836Z,3.95
2019-04-23T04:04:55.839Z,2.42
2019-04-23T04:09:47.942Z,2.87
2019-04-23T04:12:25.052Z,3.35
2019-04-23T04:14:47.399Z,3.15
2019-04-23T04:19:44.467Z,3.55
2019-04-23T04:22:29.233Z,3.05
2019-04-23T04:27:05.719Z,2.80
2019-04-23T04:29:40.374Z,2.50
2019-04-23T04:32:02.632Z,2.52
2019-04-23T04:37:32.071Z,3.62
2019-04-23T04:39:34.019Z,2.40
2019-04-23T04:52:11.239Z,3.08
2019-04-23T04:59:11.921Z,3.50
2019-04-23T05:01:39.618Z,4.87
2019-04-23T05:04:18.217Z,2.45
2019-04-23T05:09:00.656Z,3.35
2019-04-23T05:11:44.504Z,3.37
2019-04-23T05:14:08.575Z,3.83
2019-04-23T05:19:04.141Z,2.67
2019-04-23T05:26:23.917Z,3.50
2019-04-23T05:28:58.571Z,3.45
2019-04-23T05:33:41.554Z,3.52
2019-04-23T05:38:56.291Z,2.30
2019-04-23T05:41:10.102Z,2.85
2019-04-23T05:43:43.535Z,6.95
2019-04-23T05:46:04.718Z,4.65
2019-04-23T05:48:35.476Z,3.90
2019-04-23T05:51:04.851Z,3.95
2019-04-23T05:53:26.997Z,5.80
2019-04-23T05:55:55.344Z,2.72
2019-04-23T06:01:27.918Z,7.90
2019-04-23T06:03:24.846Z,2.77
2019-04-23T06:06:01.194Z,3.40
2019-04-23T06:08:25.612Z,3.40
2019-04-23T06:10:58.688Z,3.30
2019-04-23T06:13:18.623Z,3.80
2019-04-23T06:15:46.635Z,2.22
2019-04-23T06:18:25.414Z,2.62
2019-04-23T06:20:54.248Z,2.67
2019-04-23T06:23:13.340Z,8.20
2019-04-23T06:25:59.680Z,3.85
2019-04-23T06:33:11.175Z,5.85
2019-04-23T06:35:37.683Z,4.85
2019-04-23T06:40:35.832Z,4.12
2019-04-23T06:43:05.073Z,4.53
2019-04-23T06:45:32.212Z,5.72
2019-04-23T06:48:08.809Z,3.70
2019-04-23T06:50:34.657Z,5.08
2019-04-23T06:52:56.033Z,4.35
2019-04-23T06:55:31.842Z,4.00
2019-04-23T06:57:55.247Z,3.12
2019-04-23T07:00:29.518Z,4.45
2019-04-23T07:02:56.675Z,4.60
2019-04-23T07:05:27.637Z,7.15
2019-04-23T07:07:50.021Z,5.10
2019-04-23T07:10:18.710Z,3.98
2019-04-23T07:12:50.691Z,4.45
2019-04-23T07:15:32.308Z,4.87
2019-04-23T07:17:39.696Z,3.95
2019-04-23T07:20:12.804Z,4.83
2019-04-23T07:22:34.869Z,5.85
2019-04-23T07:25:07.786Z,5.47
2019-04-23T07:27:31.792Z,4.35
2019-04-23T07:30:08.379Z,3.90
2019-04-23T07:32:32.824Z,4.67
2019-04-23T07:37:34.377Z,7.08
2019-04-23T07:42:53.034Z,3.55
2019-04-23T07:45:29.625Z,4.50
2019-04-23T07:48:12.403Z,7.33
2019-04-23T07:50:39.421Z,4.72
2019-04-23T07:55:43.570Z,4.62
2019-04-23T07:58:06.652Z,4.87
2019-04-23T08:00:41.783Z,6.90
2019-04-23T08:03:10.966Z,4.60
2019-04-23T08:08:01.629Z,4.78
2019-04-23T08:10:28.045Z,6.70
2019-04-23T08:13:04.549Z,7.95
2019-04-23T08:15:29.600Z,5.50
2019-04-23T08:17:51.215Z,5.47
2019-04-23T08:20:24.728Z,4.45
2019-04-23T08:22:47.783Z,7.30
2019-04-23T08:25:25.671Z,6.00
2019-04-23T08:27:57.730Z,5.42
2019-04-23T08:30:25.552Z,4.75
2019-04-23T08:32:52.177Z,4.42
2019-04-23T08:35:41.680Z,5.42
2019-04-23T08:40:25.268Z,6.53
2019-04-23T08:43:03.621Z,5.05
2019-04-23T08:45:28.017Z,5.03
2019-04-23T08:48:00.774Z,6.37
2019-04-23T08:50:27.627Z,4.00
2019-04-23T08:52:53.956Z,5.35
2019-04-23T08:57:43.066Z,4.65
2019-04-23T09:00:24.757Z,4.35
2019-04-23T09:02:47.692Z,8.68
2019-04-23T09:05:28.670Z,4.50
2019-04-23T09:07:46.778Z,4.42
2019-04-23T09:10:17.840Z,6.75
2019-04-23T09:15:09.974Z,6.10
2019-04-23T09:17:42.872Z,6.28
2019-04-23T09:22:34.591Z,5.75
2019-04-23T09:25:04.027Z,6.70
2019-04-23T09:27:38.841Z,6.12
2019-04-23T09:32:24.913Z,8.90
2019-04-23T09:35:05.992Z,6.17
2019-04-23T09:40:10.507Z,6.12
2019-04-23T09:45:26.860Z,5.97
2019-04-23T09:53:06.334Z,5.83
2019-04-23T09:55:32.227Z,8.38
2019-04-23T09:57:52.288Z,5.17
2019-04-23T10:00:27.785Z,6.33
2019-04-23T10:02:34.068Z,5.00
2019-04-23T10:05:01.388Z,5.00
2019-04-23T10:07:27.152Z,6.53
2019-04-23T10:09:42.508Z,5.95
2019-04-23T10:12:09.541Z,4.28
2019-04-23T10:14:36.720Z,5.33
2019-04-23T10:17:04.285Z,4.90
2019-04-23T10:19:30.818Z,4.90
2019-04-23T10:21:57.530Z,6.70
2019-04-23T10:24:25.223Z,4.90
2019-04-23T10:26:52.264Z,5.20
2019-04-23T10:29:20.539Z,7.10
2019-04-23T10:31:46.662Z,5.53
2019-04-23T10:34:12.789Z,8.63
2019-04-23T10:36:40.622Z,4.50
2019-04-23T10:39:14.976Z,5.37
2019-04-23T10:41:37.805Z,7.33
2019-04-23T10:44:23.518Z,8.48
2019-04-23T10:47:30.484Z,7.10
2019-04-23T10:50:18.528Z,5.70
2019-04-23T10:52:36.379Z,5.45
2019-04-23T10:55:06.258Z,6.50
2019-04-23T10:57:51.060Z,4.95
2019-04-23T10:59:54.157Z,6.95
2019-04-23T11:02:39.134Z,6.55
2019-04-23T11:05:11.485Z,7.45
2019-04-23T11:12:36.995Z,7.12
2019-04-23T11:15:09.003Z,5.65
2019-04-23T11:17:33.099Z,6.45
2019-04-23T11:20:07.698Z,7.20
2019-04-23T11:25:04.156Z,6.30
2019-04-23T11:27:24.323Z,8.75
2019-04-23T11:29:48.708Z,8.73
2019-04-23T11:32:40.814Z,6.53
2019-04-23T11:37:12.976Z,5.90
2019-04-23T11:44:41.506Z,6.47
2019-04-23T11:49:53.505Z,9.00
2019-04-23T11:54:30.655Z,6.90
2019-04-23T11:57:22.448Z,5.10
2019-04-23T12:02:05.367Z,8.08
2019-04-23T12:04:26.295Z,8.53
2019-04-23T12:07:00.660Z,8.58
2019-04-23T12:09:46.496Z,5.75
2019-04-23T12:12:31.171Z,8.10
2019-04-23T12:32:42.982Z,7.20
2019-04-23T12:37:35.087Z,5.33
2019-04-23T12:40:00.967Z,5.80
2019-04-23T12:44:56.363Z,10.00
2019-04-23T12:47:36.297Z,8.05
2019-04-23T12:50:05.004Z,6.72
2019-04-23T12:52:17.145Z,7.50
2019-04-23T12:54:59.020Z,5.08
2019-04-23T12:57:17.454Z,7.78
2019-04-23T12:59:44.616Z,8.53
2019-04-23T13:02:19.879Z,7.70
2019-04-23T13:04:42.093Z,7.35
2019-04-23T13:07:11.445Z,8.80
2019-04-23T13:09:49.259Z,7.97
2019-04-23T13:12:14.216Z,5.45
2019-04-23T13:14:42.026Z,8.20
2019-04-23T13:17:12.569Z,6.42
2019-04-23T13:24:33.066Z,7.47
2019-04-23T13:27:02.566Z,9.33
2019-04-23T13:29:37.987Z,8.98
2019-04-23T13:31:59.222Z,7.42
2019-04-23T13:34:34.778Z,6.97
2019-04-23T13:36:51.313Z,5.65
2019-04-23T13:39:29.081Z,5.78
2019-04-23T13:41:47.819Z,6.53
2019-04-23T13:44:16.376Z,5.15
2019-04-23T13:46:39.753Z,7.03
2019-04-23T13:49:16.643Z,4.60
2019-04-23T13:51:39.975Z,4.40
2019-04-23T13:57:05.854Z,7.22
2019-04-23T13:59:21.757Z,5.47
2019-04-23T14:01:40.020Z,6.33
2019-04-23T14:04:38.876Z,6.35
2019-04-23T14:06:51.964Z,5.28
2019-04-23T14:09:20.066Z,6.65
2019-04-23T14:11:58.617Z,4.62
2019-04-23T14:14:25.397Z,6.15
2019-04-23T14:16:50.038Z,5.10
2019-04-23T14:19:28.086Z,4.58
2019-04-23T14:21:47.197Z,5.83
2019-04-23T14:24:19.524Z,4.33
2019-04-23T14:29:09.587Z,7.03
2019-04-23T14:31:35.974Z,5.45
2019-04-23T14:34:06.471Z,5.67
2019-04-23T14:36:55.535Z,4.00
2019-04-23T14:39:05.719Z,4.28
2019-04-23T14:41:45.029Z,9.88
2019-04-23T14:44:00.695Z,5.08
2019-04-23T14:48:57.942Z,6.35
2019-04-23T14:53:48.701Z,4.60
2019-04-23T14:56:17.010Z,5.42
2019-04-23T14:58:58.235Z,5.55
2019-04-23T15:01:30.293Z,6.55
2019-04-23T15:06:21.361Z,6.47
2019-04-23T15:11:20.902Z,4.15
2019-04-23T15:13:42.787Z,6.12
2019-04-23T15:18:44.491Z,7.00
2019-04-23T15:21:42.916Z,4.90
2019-04-23T15:27:02.371Z,5.45
2019-04-23T15:28:15.012Z,5.80
2019-04-23T15:31:15.430Z,4.58
2019-04-23T15:33:46.656Z,5.10
2019-04-23T15:36:24.096Z,5.35
2019-04-23T15:38:53.223Z,4.83
2019-04-23T15:41:01.238Z,4.10
2019-04-23T15:43:49.537Z,6.35
2019-04-23T15:46:04.371Z,7.83
2019-04-23T15:48:22.556Z,5.60
2019-04-23T15:50:51.577Z,7.42
2019-04-23T15:53:15.633Z,5.45
2019-04-23T15:55:56.530Z,6.42
2019-04-23T16:00:48.165Z,7.33
2019-04-23T16:02:50.949Z,5.70
2019-04-23T16:05:20.220Z,5.62
2019-04-23T16:08:01.623Z,6.03
2019-04-23T16:10:47.560Z,6.33
2019-04-23T16:13:14.909Z,6.80
2019-04-23T16:18:32.287Z,7.53
2019-04-23T16:21:03.767Z,4.28
2019-04-23T16:23:24.259Z,4.97
2019-04-23T16:25:55.281Z,6.25
2019-04-23T16:28:18.932Z,4.58
2019-04-23T16:30:46.243Z,6.03
2019-04-23T16:33:20.205Z,5.65
2019-04-23T16:35:52.720Z,5.62
2019-04-23T16:45:36.911Z,7.95
2019-04-23T16:48:26.427Z,7.08
2019-04-23T16:50:57.816Z,3.90
2019-04-23T16:53:11.648Z,4.90
2019-04-23T16:55:38.348Z,5.20
2019-04-23T16:58:18.383Z,4.17
2019-04-23T17:00:38.350Z,4.40
2019-04-23T17:03:11.269Z,3.93
2019-04-23T17:05:31.521Z,6.28
2019-04-23T17:08:30.940Z,4.60
2019-04-23T17:10:33.566Z,3.92
2019-04-23T17:15:27.409Z,4.15
2019-04-23T17:17:55.843Z,4.50
2019-04-23T17:20:28.679Z,3.95
2019-04-23T17:22:59.554Z,5.10
2019-04-23T17:25:24.822Z,4.53
2019-04-23T17:27:48.498Z,4.50
2019-04-23T17:33:02.124Z,5.22
2019-04-23T17:35:27.456Z,4.28
2019-04-23T17:38:17.381Z,4.45
2019-04-23T17:42:50.883Z,4.40
2019-04-23T17:48:13.443Z,5.90
2019-04-23T17:50:42.022Z,6.50
2019-04-23T17:53:11.012Z,4.92
2019-04-23T17:55:48.369Z,6.97
2019-04-23T17:58:16.346Z,6.10
2019-04-23T18:00:40.916Z,5.70
2019-04-23T18:05:33.650Z,3.80
2019-04-23T18:08:09.949Z,3.70
2019-04-23T18:15:31.155Z,6.40
2019-04-23T18:18:02.728Z,4.37
2019-04-23T18:20:29.658Z,6.72
2019-04-23T18:23:09.575Z,4.97
2019-04-23T18:25:33.275Z,5.70
2019-04-23T18:27:54.221Z,3.83
2019-04-23T18:30:26.051Z,5.25
2019-04-23T18:38:07.295Z,4.67
2019-04-23T18:40:42.005Z,4.37
2019-04-23T18:43:07.339Z,6.45
2019-04-23T18:45:39.597Z,6.97
2019-04-23T18:48:26.880Z,4.62
2019-04-23T18:53:22.682Z,6.60
2019-04-23T18:55:52.606Z,6.15
2019-04-23T18:58:08.445Z,5.03
2019-04-23T19:00:57.064Z,5.85
2019-04-23T19:03:19.987Z,4.35
2019-04-23T19:06:15.306Z,4.05
2019-04-23T19:11:33.956Z,5.58
2019-04-23T19:13:47.710Z,4.00
2019-04-23T19:16:21.411Z,3.62
2019-04-23T19:18:52.641Z,6.20
2019-04-23T19:23:47.631Z,4.90
2019-04-23T19:26:24.550Z,10.23
2019-04-23T19:31:25.149Z,24.70
2019-04-23T19:33:53.456Z,15.80
2019-04-23T19:36:26.208Z,13.25
2019-04-23T19:38:49.281Z,12.43
2019-04-23T19:41:37.322Z,7.22
2019-04-23T19:43:49.168Z,8.88
2019-04-23T19:51:08.857Z,5.62
2019-04-23T19:58:39.732Z,5.33
2019-04-23T20:03:37.781Z,5.33
2019-04-23T20:06:00.470Z,5.90
2019-04-23T20:08:33.990Z,4.95
2019-04-23T20:10:54.378Z,6.65
2019-04-23T20:13:35.273Z,7.03
2019-04-23T20:18:25.217Z,5.92
2019-04-23T20:20:49.740Z,4.92
2019-04-23T20:23:24.685Z,5.35
2019-04-23T20:26:12.161Z,5.58
2019-04-23T20:28:24.133Z,5.70
2019-04-23T20:31:50.498Z,6.15
2019-04-23T20:33:55.456Z,4.15
2019-04-23T20:36:07.191Z,4.85
2019-04-23T20:38:43.401Z,7.42
2019-04-23T20:41:38.481Z,5.42
2019-04-23T20:43:55.676Z,5.72
2019-04-23T20:46:29.711Z,6.00
2019-04-23T20:49:03.985Z,6.85
2019-04-23T20:51:18.732Z,6.92
2019-04-23T20:53:49.646Z,4.10
2019-04-23T20:56:17.663Z,5.53
2019-04-23T20:59:03.415Z,6.08
2019-04-23T21:01:48.148Z,5.05
2019-04-23T21:04:00.106Z,7.25
2019-04-23T21:06:37.869Z,5.90
2019-04-23T21:09:19.563Z,5.67
2019-04-23T21:16:31.061Z,5.65
2019-04-23T21:18:55.079Z,7.10
2019-04-23T21:21:27.901Z,5.55
2019-04-23T21:26:08.394Z,8.15
2019-04-23T21:28:49.132Z,6.25
2019-04-23T21:31:11.451Z,5.37
2019-04-23T21:34:03.235Z,5.47
2019-04-23T21:44:08.584Z,6.25
2019-04-23T21:46:28.025Z,5.12
2019-04-23T21:51:45.956Z,6.20
2019-04-23T21:53:53.204Z,5.65
2019-04-23T21:58:59.483Z,5.92
2019-04-23T22:01:37.115Z,5.85
2019-04-23T22:06:22.157Z,6.00
2019-04-23T22:08:56.328Z,7.53
2019-04-23T22:11:39.396Z,6.30
2019-04-23T22:13:55.436Z,5.83
2019-04-23T22:18:48.496Z,6.70
2019-04-23T22:21:15.937Z,5.70
2019-04-23T22:23:41.915Z,5.30
2019-04-23T22:26:07.923Z,6.10
2019-04-23T22:28:40.532Z,5.60
2019-04-23T22:31:10.802Z,7.03
2019-04-23T22:33:29.106Z,6.30
2019-04-23T22:36:10.046Z,7.17
2019-04-23T22:38:33.540Z,6.37
2019-04-23T22:40:58.147Z,6.47
2019-04-23T22:43:22.199Z,6.42
2019-04-23T22:48:29.596Z,6.35
2019-04-23T22:50:56.768Z,7.50
2019-04-23T22:53:20.515Z,6.83
2019-04-23T22:55:49.649Z,5.45
2019-04-23T23:00:49.828Z,4.72
2019-04-23T23:03:16.942Z,6.35
2019-04-23T23:05:56.218Z,7.15
2019-04-23T23:08:24.000Z,8.03
2019-04-23T23:10:44.213Z,6.40
2019-04-23T23:15:41.742Z,8.63
2019-04-23T23:20:36.075Z,7.05
2019-04-23T23:23:13.110Z,6.25
2019-04-23T23:25:30.495Z,8.25
2019-04-23T23:28:05.781Z,5.30
2019-04-23T23:30:37.516Z,6.72
2019-04-23T23:33:04.115Z,6.85
2019-04-23T23:37:59.109Z,6.58
2019-04-23T23:43:05.715Z,7.85
2019-04-23T23:47:52.275Z,7.50
2019-04-23T23:50:21.470Z,6.87
2019-04-23T23:52:59.688Z,8.63
2019-04-23T23:55:16.086Z,8.25
2019-04-23T23:57:57.998Z,10.48
